Terminal Aerodrome Forecast
Issued by NWS

Home | Current Version | Previous Version | Text Only | Print | Product List | Glossary On
Versions: 1 2 3 4 5 6 7 8 9 10 11 12 13 14 15 16 17 18 19 20 21 22
358
FTUS41 KPBZ 271122
TAFDUJ
TAF
KDUJ 271122Z 2712/2812 13007KT P6SM SCT250
     FM271600 16011G22KT P6SM BKN250
     FM272200 17011G22KT 5SM -SHRA VCTS BKN090CB
     FM280200 19007KT P6SM BKN020
     FM280400 22006KT P6SM BKN015=

USA.gov is the U.S. government's official web portal to all federal, state and local government web resources and services.